Time;durP1;ratioP1;P1;durP2;ratioP2;P2;SDS_P1;SDS_P2;PMS_P1;PMS_P2;Temp;Humidity;BMP_temperature;BMP_pressure;BME280_temperature;BME280_humidity;BME280_pressure;Samples;Min_cycle;Max_cycle;Signal;HPM_P1;HPM_P2
2022/12/18 00:28:09;;;;;;;63.22;36.92;;;;;;;-6.79;73.03;101201.34;1089070;54;20018;-80
2022/12/18 00:34:46;;;;;;;69.55;38.40;;;;;;;-6.83;73.05;101208.31;1089027;54;20034;-80
2022/12/18 00:35:49;;;;;;;60.20;36.05;;;;;;;-6.73;73.02;101203.91;1089131;46;21921;-81
2022/12/18 00:36:56;;;;;;;68.47;36.92;;;;;;;-6.71;73.10;101201.31;1089359;46;20030;-79
2022/12/18 00:38:23;;;;;;;60.60;36.47;;;;;;;-6.67;72.84;101200.41;1089081;54;20046;-80
2022/12/18 00:39:30;;;;;;;59.22;33.38;;;;;;;-6.59;72.76;101196.03;1091345;46;20086;-81
2022/12/18 00:40:52;;;;;;;61.47;35.15;;;;;;;-6.54;72.71;101196.03;1089635;46;20014;-81
2022/12/18 00:43:28;;;;;;;63.13;34.70;;;;;;;-6.58;72.86;101205.59;1087715;54;20034;-81
2022/12/18 00:44:29;;;;;;;65.55;36.08;;;;;;;-6.57;72.73;101199.50;1087561;54;20030;-80
2022/12/18 00:45:34;;;;;;;60.45;37.58;;;;;;;-6.53;72.67;101203.84;1087566;46;20427;-81
2022/12/18 00:46:35;;;;;;;66.07;41.13;;;;;;;-6.57;72.75;101203.88;1087842;54;20038;-79
2022/12/18 00:47:40;;;;;;;69.38;41.78;;;;;;;-6.61;72.66;101203.88;1087887;54;20061;-81
2022/12/18 00:48:41;;;;;;;72.68;41.10;;;;;;;-6.65;72.92;101196.09;1087903;54;20058;-79
2022/12/18 00:49:46;;;;;;;72.35;41.35;;;;;;;-6.67;72.86;101203.03;1087830;54;20041;-80
2022/12/18 00:50:48;;;;;;;70.22;43.13;;;;;;;-6.75;72.84;101205.66;1089661;46;20041;-79
2022/12/18 00:51:52;;;;;;;72.53;42.75;;;;;;;-6.78;72.95;101211.72;1087905;46;20036;-81
2022/12/18 00:52:53;;;;;;;75.75;45.28;;;;;;;-6.87;72.91;101208.31;1089683;46;20035;-80
2022/12/18 00:53:58;;;;;;;80.28;47.72;;;;;;;-7.00;73.24;101210.09;1087953;54;20030;-80
2022/12/18 00:54:59;;;;;;;78.90;47.00;;;;;;;-7.09;73.31;101217.06;1088082;54;20054;-80
2022/12/18 00:56:06;;;;;;;75.82;47.00;;;;;;;-7.17;73.63;101216.19;1088084;54;20030;-80
2022/12/18 00:57:08;;;;;;;78.72;46.08;;;;;;;-7.13;73.71;101215.31;1088055;54;20038;-80
2022/12/18 00:58:14;;;;;;;78.00;44.10;;;;;;;-7.03;73.58;101215.28;1088516;54;20019;-80
2022/12/18 00:59:15;;;;;;;74.80;45.03;;;;;;;-6.98;73.37;101216.13;1093758;46;20022;-79
2022/12/18 01:00:20;;;;;;;76.85;44.40;;;;;;;-6.86;73.22;101213.50;1089112;46;20042;-81
2022/12/18 01:01:22;;;;;;;72.18;41.80;;;;;;;-6.76;73.03;101216.94;1088386;46;20045;-80
2022/12/18 01:02:26;;;;;;;67.68;39.35;;;;;;;-6.69;72.90;101217.75;1091608;46;20030;-81
2022/12/18 01:03:27;;;;;;;62.33;38.05;;;;;;;-6.61;72.54;101214.28;1089188;46;20066;-79
2022/12/18 01:04:33;;;;;;;57.05;34.72;;;;;;;-6.53;72.52;101215.97;1087831;54;20087;-80
2022/12/18 01:05:39;;;;;;;58.97;35.03;;;;;;;-6.51;72.22;101217.69;1089617;46;20030;-81
2022/12/18 01:06:43;;;;;;;61.05;36.53;;;;;;;-6.49;72.03;101212.50;1087842;54;20034;-80
2022/12/18 01:07:45;;;;;;;60.60;36.95;;;;;;;-6.52;71.82;101205.56;1087810;54;20045;-81
2022/12/18 01:08:49;;;;;;;62.03;37.65;;;;;;;-6.53;71.85;101211.66;1087725;54;20041;-79
2022/12/18 01:09:51;;;;;;;65.70;40.38;;;;;;;-6.65;71.62;101202.13;1088194;46;20025;-80
2022/12/18 01:10:55;;;;;;;66.20;42.30;;;;;;;-6.66;71.88;101208.22;1087721;54;20077;-79
2022/12/18 01:12:02;;;;;;;62.83;38.13;;;;;;;-6.65;71.71;101211.69;1087741;54;20063;-80
2022/12/18 01:13:03;;;;;;;64.82;38.38;;;;;;;-6.65;71.95;101203.88;1087658;54;20045;-79
2022/12/18 01:14:08;;;;;;;64.40;38.55;;;;;;;-6.61;71.91;101218.63;1087749;54;20031;-80
2022/12/18 01:15:11;;;;;;;61.65;36.55;;;;;;;-6.64;71.65;101210.81;1087949;46;20039;-81
2022/12/18 01:16:17;;;;;;;60.15;37.72;;;;;;;-6.61;71.87;101209.06;1087667;54;20041;-80
2022/12/18 01:17:19;;;;;;;60.30;34.75;;;;;;;-6.61;71.62;101210.81;1087881;54;20082;-80
2022/12/18 01:18:23;;;;;;;60.45;35.42;;;;;;;-6.64;71.58;101213.44;1087705;54;20119;-80
2022/12/18 01:19:24;;;;;;;54.95;34.72;;;;;;;-6.62;71.86;101217.75;1088085;46;20018;-80
2022/12/18 01:20:28;;;;;;;56.22;34.35;;;;;;;-6.61;71.79;101208.22;1087644;54;20388;-80
2022/12/18 01:21:30;;;;;;;55.42;35.83;;;;;;;-6.62;71.62;101214.28;1087689;54;20042;-81
2022/12/18 01:22:34;;;;;;;57.88;35.45;;;;;;;-6.65;71.41;101224.69;1087691;54;20030;-80
2022/12/18 01:23:36;;;;;;;60.33;35.28;;;;;;;-6.68;71.58;101224.69;1087765;54;20034;-80
2022/12/18 01:24:40;;;;;;;58.33;34.65;;;;;;;-6.70;71.60;101224.72;1087622;54;20031;-79
2022/12/18 01:25:41;;;;;;;58.45;34.85;;;;;;;-6.75;71.56;101229.94;1087737;54;20031;-80
2022/12/18 01:26:45;;;;;;;52.55;32.20;;;;;;;-6.73;71.88;101229.91;1087732;54;20034;-81
2022/12/18 01:27:50;;;;;;;56.60;34.75;;;;;;;-6.83;71.67;101223.91;1089273;46;20030;-79
2022/12/18 01:28:54;;;;;;;55.80;34.30;;;;;;;-6.78;71.79;101223.88;1092133;39;20712;-79
2022/12/18 01:29:55;;;;;;;55.50;33.80;;;;;;;-6.79;71.84;101220.41;1087647;54;20041;-80
2022/12/18 01:30:59;;;;;;;50.38;32.45;;;;;;;-6.77;71.88;101220.41;1087699;46;20034;-80
2022/12/18 01:32:02;;;;;;;46.35;29.55;;;;;;;-6.73;71.83;101224.72;1089582;46;20034;-80
2022/12/18 01:33:07;;;;;;;52.80;31.38;;;;;;;-6.72;71.76;101221.25;1087640;54;20093;-80
2022/12/18 01:34:12;;;;;;;52.78;31.65;;;;;;;-6.81;71.85;101222.16;1087676;54;20038;-80
2022/12/18 01:35:13;;;;;;;59.25;36.15;;;;;;;-6.90;72.14;101230.00;1087591;54;20034;-80
2022/12/18 01:36:21;;;;;;;58.00;37.10;;;;;;;-6.94;72.37;101231.72;1087703;54;20031;-80
2022/12/18 01:37:22;;;;;;;57.10;34.83;;;;;;;-6.90;72.32;101227.41;1087730;54;20034;-80
2022/12/18 01:38:26;;;;;;;60.47;36.72;;;;;;;-6.93;72.55;101235.19;1087687;54;20705;-82
2022/12/18 01:39:28;;;;;;;65.15;40.33;;;;;;;-7.05;72.53;101228.31;1087570;54;20038;-80
2022/12/18 01:40:32;;;;;;;68.80;40.35;;;;;;;-7.08;72.82;101234.34;1087573;54;20041;-80
2022/12/18 01:42:56;;;;;;;77.43;45.03;;;;;;;-7.31;73.42;101228.34;1087521;54;20057;-80
2022/12/18 01:43:58;;;;;;;72.22;44.28;;;;;;;-7.39;73.58;101224.03;1087730;54;20031;-79
2022/12/18 01:45:06;;;;;;;77.47;46.08;;;;;;;-7.38;73.52;101235.28;1087573;54;20054;-79
2022/12/18 01:46:08;;;;;;;75.93;44.50;;;;;;;-7.41;73.65;101230.06;1087660;54;20026;-79
2022/12/18 01:47:17;;;;;;;77.53;46.38;;;;;;;-7.45;73.67;101238.75;1087686;54;20034;-80
2022/12/18 01:48:18;;;;;;;80.10;46.22;;;;;;;-7.50;73.92;101230.97;1087621;54;21078;-80
2022/12/18 01:49:22;;;;;;;72.80;45.13;;;;;;;-7.45;74.04;101231.81;1087660;54;20030;-78
2022/12/18 01:50:28;;;;;;;85.50;47.20;;;;;;;-7.45;73.81;101231.81;1087599;54;20034;-80
2022/12/18 01:51:33;;;;;;;79.15;44.97;;;;;;;-7.44;74.03;101243.09;1087677;54;20018;-80
2022/12/18 01:52:35;;;;;;;77.32;46.28;;;;;;;-7.51;74.16;101229.25;1087555;54;20034;-80
2022/12/18 01:53:41;;;;;;;80.65;47.33;;;;;;;-7.56;74.25;101226.63;1087609;54;20098;-80
2022/12/18 01:55:54;;;;;;;77.65;46.00;;;;;;;-7.57;74.34;101216.25;1087290;54;20030;-76
2022/12/18 01:56:55;;;;;;;80.95;45.28;;;;;;;-7.65;74.39;101205.00;1087541;54;20044;-76
2022/12/18 01:58:04;;;;;;;82.57;48.22;;;;;;;-7.74;74.79;101219.69;1087533;54;20045;-76
2022/12/18 01:59:11;;;;;;;81.03;47.80;;;;;;;-7.79;74.85;101218.00;1087538;54;20030;-75
2022/12/18 02:00:18;;;;;;;80.63;48.35;;;;;;;-7.80;75.09;101218.88;1087385;54;20061;-76
2022/12/18 02:01:21;;;;;;;77.57;45.00;;;;;;;-7.84;75.29;101225.78;1087454;54;20039;-76
2022/12/18 02:02:25;;;;;;;79.65;46.63;;;;;;;-7.89;75.27;101232.69;1087613;54;20037;-76
2022/12/18 02:03:32;;;;;;;74.90;46.03;;;;;;;-7.80;75.19;101229.25;1092568;39;20948;-76
2022/12/18 02:04:36;;;;;;;76.90;44.65;;;;;;;-7.74;74.99;101237.88;1087498;54;20150;-76
2022/12/18 02:05:48;;;;;;;76.18;45.95;;;;;;;-7.76;75.01;101233.56;1087462;54;20034;-75
2022/12/18 02:07:04;;;;;;;74.38;44.35;;;;;;;-7.80;75.09;101227.50;1089992;46;20022;-76
2022/12/18 02:08:14;;;;;;;80.90;47.47;;;;;;;-7.86;75.30;101230.97;1087671;54;20741;-76
2022/12/18 02:09:23;;;;;;;73.50;43.55;;;;;;;-7.90;75.50;101244.81;1090398;39;20630;-77
2022/12/18 02:10:34;;;;;;;80.47;44.42;;;;;;;-7.89;75.49;101245.69;1088034;46;20035;-76
2022/12/18 02:11:47;;;;;;;75.53;42.35;;;;;;;-7.84;75.26;101242.22;1087665;54;20045;-76
2022/12/18 02:12:59;;;;;;;69.97;41.78;;;;;;;-7.77;75.08;101237.03;1087536;54;20963;-76
2022/12/18 02:14:20;;;;;;;67.53;40.13;;;;;;;-7.64;74.59;101227.50;1087574;54;20039;-76
2022/12/18 02:15:32;;;;;;;64.55;37.75;;;;;;;-7.48;74.15;101221.44;1087457;54;20041;-76
2022/12/18 02:16:40;;;;;;;66.65;37.85;;;;;;;-7.34;73.86;101220.56;1087523;54;20039;-76
2022/12/18 02:17:50;;;;;;;62.47;37.65;;;;;;;-7.28;73.74;101223.16;1087933;46;20030;-75
2022/12/18 02:19:06;;;;;;;66.90;37.60;;;;;;;-7.30;73.74;101223.13;1087498;54;20098;-75
2022/12/18 02:20:16;;;;;;;64.90;38.15;;;;;;;-7.41;73.66;101227.47;1087860;39;20271;-76
2022/12/18 02:21:27;;;;;;;;;;;;;;;-7.57;74.19;101239.63;1087617;54;20030;-76
2022/12/18 02:22:44;;;;;;;75.18;42.55;;;;;;;-7.62;74.23;101239.66;1087475;54;19942;-76
2022/12/18 02:23:56;;;;;;;69.15;40.25;;;;;;;-7.61;74.15;101237.91;1087443;54;20042;-76
2022/12/18 02:25:20;;;;;;;67.03;39.75;;;;;;;-7.61;74.13;101243.09;1087469;54;20054;-76
2022/12/18 02:26:37;;;;;;;67.80;39.95;;;;;;;-7.57;74.15;101240.50;1087436;54;20041;-75
2022/12/18 02:27:42;;;;;;;68.22;39.55;;;;;;;-7.58;74.17;101232.72;1087512;54;20041;-76
2022/12/18 02:28:51;;;;;;;71.72;43.25;;;;;;;-7.59;74.32;101221.44;1087425;54;20037;-76
2022/12/18 02:29:55;;;;;;;69.97;41.33;;;;;;;-7.61;74.37;101219.72;1087447;54;20038;-76
2022/12/18 02:31:03;;;;;;;79.22;44.65;;;;;;;-7.59;74.22;101224.03;1087278;54;20030;-76
2022/12/18 02:32:10;;;;;;;71.63;42.72;;;;;;;-7.63;74.29;101219.72;1088653;46;20034;-75
2022/12/18 02:33:15;;;;;;;65.07;38.47;;;;;;;-7.62;74.56;101225.78;1087517;54;20037;-76
2022/12/18 02:34:18;;;;;;;72.15;42.42;;;;;;;-7.62;74.35;101228.38;1087439;54;20030;-76
2022/12/18 02:35:27;;;;;;;72.00;42.35;;;;;;;-7.57;74.46;101234.44;1087400;54;20031;-77
2022/12/18 02:36:32;;;;;;;66.45;40.47;;;;;;;-7.53;74.42;101236.16;1087356;54;20031;-76
2022/12/18 02:37:38;;;;;;;67.00;41.38;;;;;;;-7.46;74.10;101252.63;1087541;54;20082;-76
2022/12/18 02:38:41;;;;;;;65.85;39.53;;;;;;;-7.38;73.87;101250.88;1087409;54;20023;-76
2022/12/18 02:39:49;;;;;;;68.38;39.78;;;;;;;-7.35;73.60;101258.69;1087382;54;20053;-76
2022/12/18 02:40:53;;;;;;;71.10;40.65;;;;;;;-7.50;73.67;101251.75;1087375;54;20038;-76
2022/12/18 02:42:02;;;;;;;68.30;41.25;;;;;;;-7.55;73.97;101246.56;1087394;54;20023;-76
2022/12/18 02:43:08;;;;;;;70.60;41.22;;;;;;;-7.57;73.85;101253.47;1087475;54;20094;-75
2022/12/18 02:44:14;;;;;;;76.30;42.85;;;;;;;-7.62;73.97;101238.75;1087432;54;20053;-75
2022/12/18 02:45:17;;;;;;;71.15;43.03;;;;;;;-7.58;73.99;101237.91;1087371;54;20042;-76
2022/12/18 02:46:31;;;;;;;70.25;40.67;;;;;;;-7.54;74.08;101245.69;1088310;39;20947;-76
2022/12/18 02:47:38;;;;;;;67.55;40.75;;;;;;;-7.55;74.11;101249.16;1088844;39;20607;-77
2022/12/18 02:48:42;;;;;;;74.30;41.40;;;;;;;-7.62;74.12;101256.94;1087436;54;20038;-76
2022/12/18 02:50:00;;;;;;;72.18;41.20;;;;;;;-7.69;74.53;101250.88;1087358;54;20031;-76
2022/12/18 02:51:08;;;;;;;73.50;42.05;;;;;;;-7.71;74.42;101263.88;1087344;54;20034;-76
2022/12/18 02:52:23;;;;;;;69.35;42.08;;;;;;;-7.71;74.39;101257.81;1087409;54;20034;-75
2022/12/18 02:53:31;;;;;;;71.45;41.33;;;;;;;-7.67;74.43;101259.53;1087995;46;20039;-76
2022/12/18 02:55:00;;;;;;;71.85;41.78;;;;;;;-7.68;74.30;101258.69;1088936;39;20634;-76
2022/12/18 02:56:07;;;;;;;69.53;42.05;;;;;;;-7.69;74.30;101258.66;1086960;54;20864;-75
2022/12/18 02:57:22;;;;;;;72.72;42.58;;;;;;;-7.75;74.32;101250.88;1087010;54;20042;-75
2022/12/18 02:58:30;;;;;;;74.30;43.20;;;;;;;-7.82;74.59;101254.34;1087020;46;20038;-75
2022/12/18 02:59:42;;;;;;;73.97;43.38;;;;;;;-7.89;74.75;101248.28;1087058;54;20030;-76
2022/12/18 03:00:48;;;;;;;75.53;43.17;;;;;;;-7.85;75.00;101235.28;1087014;54;20061;-76
2022/12/18 03:01:57;;;;;;;78.40;44.72;;;;;;;-7.89;75.10;101245.69;1087295;54;20042;-76
2022/12/18 03:03:05;;;;;;;70.20;43.45;;;;;;;-7.87;75.15;101241.34;1087342;54;20034;-76
2022/12/18 03:04:14;;;;;;;71.40;41.38;;;;;;;-7.63;74.70;101239.63;1087373;54;20118;-76
2022/12/18 03:05:21;;;;;;;70.05;40.53;;;;;;;-7.76;74.79;101242.22;1087307;54;20038;-76
2022/12/18 03:06:30;;;;;;;73.82;42.33;;;;;;;-7.79;74.77;101243.97;1087227;54;20034;-75
2022/12/18 03:07:37;;;;;;;75.05;44.97;;;;;;;-7.90;74.90;101246.53;1087378;54;20045;-76
2022/12/18 03:08:46;;;;;;;70.40;40.33;;;;;;;-7.80;74.97;101247.44;1089025;46;20124;-76
2022/12/18 03:09:51;;;;;;;75.72;43.25;;;;;;;-7.88;75.05;101250.84;1087340;54;20034;-75
2022/12/18 03:11:02;;;;;;;75.32;42.60;;;;;;;-7.90;75.26;101241.34;1087463;54;20097;-75
2022/12/18 03:12:25;;;;;;;73.82;42.22;;;;;;;-7.90;75.10;101236.16;1087582;39;21016;-76
2022/12/18 03:13:37;;;;;;;72.97;41.72;;;;;;;-7.94;75.08;101239.63;1087355;54;20038;-75
2022/12/18 03:14:40;;;;;;;76.00;42.72;;;;;;;-7.97;75.27;101239.59;1087319;54;21159;-76
2022/12/18 03:15:48;;;;;;;73.90;41.17;;;;;;;-7.91;74.99;101231.81;1087344;54;20090;-75
2022/12/18 03:16:53;;;;;;;73.03;42.40;;;;;;;-7.87;75.02;101238.75;1087258;54;20030;-76
2022/12/18 03:18:02;;;;;;;68.00;41.15;;;;;;;-7.81;74.91;101235.31;1087324;54;20038;-76
2022/12/18 03:19:08;;;;;;;73.63;42.10;;;;;;;-7.76;74.84;101239.63;1087347;54;20065;-76
2022/12/18 03:20:16;;;;;;;74.18;40.88;;;;;;;-7.84;74.65;101233.59;1087858;47;20042;-75
2022/12/18 03:21:21;;;;;;;72.95;42.63;;;;;;;-7.86;74.78;101232.72;1087357;54;20034;-75
2022/12/18 03:22:29;;;;;;;75.63;43.55;;;;;;;-7.82;74.68;101237.03;1087339;54;20037;-76
2022/12/18 03:23:35;;;;;;;68.07;40.47;;;;;;;-7.88;74.85;101230.09;1087357;54;20034;-75
2022/12/18 03:24:40;;;;;;;71.80;43.47;;;;;;;-7.88;74.82;101240.47;1087313;54;20037;-75
2022/12/18 03:25:44;;;;;;;65.95;40.05;;;;;;;-7.85;74.77;101243.09;1087323;54;20780;-77
2022/12/18 03:26:53;;;;;;;72.63;41.03;;;;;;;-7.90;74.51;101250.00;1087353;54;20038;-75
2022/12/18 03:27:57;;;;;;;69.45;40.40;;;;;;;-7.90;74.51;101246.53;1090329;39;20689;-76
2022/12/18 03:29:10;;;;;;;72.63;40.85;;;;;;;-7.94;74.31;101250.84;1087389;54;20030;-76
2022/12/18 03:30:14;;;;;;;73.75;42.13;;;;;;;-7.96;74.41;101241.34;1087291;54;20042;-76
2022/12/18 03:31:19;;;;;;;81.65;46.17;;;;;;;-8.00;74.55;101251.72;1087184;54;20784;-76
2022/12/18 03:32:25;;;;;;;80.97;44.63;;;;;;;-8.02;74.59;101253.44;1087309;54;20031;-75
2022/12/18 03:33:33;;;;;;;72.45;42.28;;;;;;;-7.93;74.52;101251.75;1087338;54;20034;-75
2022/12/18 03:34:37;;;;;;;82.50;44.22;;;;;;;-7.93;74.32;101251.75;1087281;54;20050;-75
2022/12/18 03:35:44;;;;;;;76.97;41.63;;;;;;;-7.93;74.51;101249.16;1087313;54;20038;-76
2022/12/18 03:36:46;;;;;;;70.20;40.35;;;;;;;-8.00;74.67;101256.91;1089691;39;20618;-75
2022/12/18 03:37:50;;;;;;;68.72;39.85;;;;;;;-7.95;74.58;101248.28;1087295;54;21062;-75
2022/12/18 03:38:51;;;;;;;68.18;40.13;;;;;;;-7.97;74.71;101244.81;1087342;54;20035;-76
2022/12/18 03:39:56;;;;;;;69.32;40.75;;;;;;;-8.00;74.67;101246.53;1087559;47;20115;-75
2022/12/18 03:41:03;;;;;;;69.97;40.72;;;;;;;-8.02;74.72;101253.44;1087305;54;20034;-75
2022/12/18 03:42:11;;;;;;;64.28;39.78;;;;;;;-8.08;74.82;101250.00;1087281;54;20034;-76
2022/12/18 03:43:20;;;;;;;68.07;39.28;;;;;;;-8.08;74.92;101248.25;1087298;54;20053;-75
2022/12/18 03:44:34;;;;;;;65.35;39.42;;;;;;;-8.15;74.77;101244.75;1087307;54;20030;-76
2022/12/18 03:45:41;;;;;;;63.95;38.38;;;;;;;-8.14;74.79;101240.44;1087293;54;20026;-76
2022/12/18 03:46:55;;;;;;;69.68;37.75;;;;;;;-8.07;74.56;101251.69;1087694;39;20725;-76
2022/12/18 03:48:02;;;;;;;68.13;37.78;;;;;;;-8.19;74.63;101260.31;1087269;54;20053;-75
2022/12/18 03:49:16;;;;;;;65.07;36.28;;;;;;;-8.20;74.60;101259.47;1087342;54;20026;-76
2022/12/18 03:50:22;;;;;;;63.42;35.20;;;;;;;-8.20;74.67;101251.69;1087255;54;20062;-75
2022/12/18 03:51:31;;;;;;;65.45;36.28;;;;;;;-8.23;74.47;101258.59;1087368;54;20037;-75
2022/12/18 03:52:37;;;;;;;64.28;36.47;;;;;;;-8.22;74.45;101255.16;1087237;54;20053;-75
2022/12/18 03:53:48;;;;;;;63.72;37.67;;;;;;;-8.26;74.57;101261.19;1087330;54;20034;-75
2022/12/18 03:54:52;;;;;;;63.55;37.22;;;;;;;-8.24;74.50;101249.06;1087182;54;20027;-76
2022/12/18 03:55:58;;;;;;;69.57;38.15;;;;;;;-8.12;74.73;101259.47;1087288;54;20030;-76
2022/12/18 03:57:07;;;;;;;64.80;36.13;;;;;;;-8.16;74.38;101250.81;1087263;54;20822;-75
2022/12/18 03:58:12;;;;;;;61.85;34.90;;;;;;;-8.07;74.15;101249.97;1087283;54;21112;-76
2022/12/18 03:59:19;;;;;;;67.43;37.58;;;;;;;-8.06;74.18;101245.63;1088766;39;20686;-76
2022/12/18 04:00:23;;;;;;;69.85;40.72;;;;;;;-8.18;74.30;101251.69;1087204;54;20053;-75
2022/12/18 04:01:33;;;;;;;65.50;38.53;;;;;;;-8.21;74.34;101243.88;1087308;54;20030;-75
2022/12/18 04:02:38;;;;;;;71.93;38.42;;;;;;;-8.15;74.28;101241.31;1087279;54;20034;-76
2022/12/18 04:03:44;;;;;;;60.92;37.63;;;;;;;-8.16;74.09;101256.00;1087268;54;20030;-76
2022/12/18 04:04:48;;;;;;;62.58;38.08;;;;;;;-8.19;74.34;101252.53;1087208;54;20038;-76
2022/12/18 04:05:53;;;;;;;67.38;38.60;;;;;;;-8.22;74.47;101261.19;1087244;54;20042;-75
2022/12/18 04:06:56;;;;;;;67.75;39.17;;;;;;;-8.20;74.55;101263.78;1087257;54;20034;-75
2022/12/18 04:08:01;;;;;;;66.03;38.70;;;;;;;-8.11;74.48;101268.13;1087295;54;20034;-75
2022/12/18 04:09:04;;;;;;;65.50;36.63;;;;;;;-8.08;74.26;101257.78;1087328;54;20034;-76
2022/12/18 04:10:12;;;;;;;65.82;37.72;;;;;;;-7.99;74.02;101257.78;1087293;54;20034;-75
2022/12/18 04:11:13;;;;;;;56.70;35.28;;;;;;;-7.86;73.68;101250.88;1087176;54;20058;-75
2022/12/18 04:12:18;;;;;;;60.40;35.42;;;;;;;-7.90;73.73;101254.31;1087171;54;20119;-75
2022/12/18 04:13:23;;;;;;;65.72;37.03;;;;;;;-7.96;73.83;101254.31;1087130;54;20054;-76
2022/12/18 04:14:27;;;;;;;65.90;36.72;;;;;;;-8.04;73.93;101260.38;1087269;54;20031;-75
2022/12/18 04:15:34;;;;;;;66.72;38.88;;;;;;;-8.09;74.09;101267.28;1087087;54;20037;-76
2022/12/18 04:16:38;;;;;;;65.28;37.97;;;;;;;-8.07;74.34;101269.84;1087230;54;20797;-75
2022/12/18 04:17:47;;;;;;;66.50;39.47;;;;;;;-8.07;74.26;101265.56;1087180;54;20034;-75
2022/12/18 04:18:51;;;;;;;63.70;38.03;;;;;;;-8.04;74.17;101265.56;1087471;54;20034;-75
2022/12/18 04:19:53;;;;;;;67.43;38.72;;;;;;;-8.07;74.26;101269.84;1087576;54;20041;-75
2022/12/18 04:20:57;;;;;;;68.90;39.97;;;;;;;-8.11;74.41;101271.59;1087577;54;20082;-75
2022/12/18 04:21:59;;;;;;;70.32;39.90;;;;;;;-8.16;74.53;101270.72;1087603;54;20689;-75
2022/12/18 04:23:03;;;;;;;64.20;39.20;;;;;;;-8.11;74.58;101270.72;1087559;54;20026;-75
2022/12/18 04:24:05;;;;;;;74.13;41.53;;;;;;;-8.07;74.60;101273.34;1087609;54;20026;-76
2022/12/18 04:25:11;;;;;;;66.10;40.30;;;;;;;-8.06;74.50;101267.28;1087974;39;20649;-75
2022/12/18 04:26:12;;;;;;;62.53;38.90;;;;;;;-8.09;74.48;101258.63;1087643;54;20034;-75
2022/12/18 04:27:18;;;;;;;67.90;38.97;;;;;;;-8.16;74.68;101262.94;1087670;54;20041;-75
2022/12/18 04:28:19;;;;;;;69.10;41.55;;;;;;;-8.21;74.85;101262.94;1087655;54;20026;-75
2022/12/18 04:29:23;;;;;;;67.00;39.75;;;;;;;-8.20;74.94;101266.38;1087562;54;20074;-76
2022/12/18 04:30:25;;;;;;;70.55;40.35;;;;;;;-8.16;75.10;101273.31;1087605;54;20035;-75
2022/12/18 04:31:32;;;;;;;69.50;41.10;;;;;;;-8.19;75.14;101271.59;1087496;54;20038;-76
2022/12/18 04:32:34;;;;;;;69.68;41.03;;;;;;;-8.13;75.06;101268.16;1087658;54;20045;-76
2022/12/18 04:33:38;;;;;;;67.57;40.28;;;;;;;-8.16;74.88;101270.72;1087557;54;20015;-75
2022/12/18 04:34:39;;;;;;;65.70;39.60;;;;;;;-8.08;75.00;101279.38;1088615;46;20045;-76
2022/12/18 04:35:44;;;;;;;63.97;39.03;;;;;;;-8.02;74.90;101275.94;1087685;46;20035;-75
2022/12/18 04:36:46;;;;;;;63.70;39.20;;;;;;;-8.03;74.88;101282.00;1087602;54;20018;-75
2022/12/18 04:37:50;;;;;;;69.00;41.45;;;;;;;-8.06;74.71;101276.78;1087571;54;20031;-75
2022/12/18 04:38:54;;;;;;;65.13;39.60;;;;;;;-8.09;74.78;101267.28;1087544;54;20030;-75
2022/12/18 04:40:00;;;;;;;69.85;40.35;;;;;;;-7.95;74.53;101261.25;1087850;54;20037;-75
2022/12/18 04:41:04;;;;;;;71.18;38.42;;;;;;;-7.90;74.26;101262.09;1087977;54;20026;-76
2022/12/18 04:42:06;;;;;;;65.32;37.65;;;;;;;-7.89;74.28;101269.03;1089023;46;20026;-75
2022/12/18 04:43:10;;;;;;;62.72;37.90;;;;;;;-7.96;74.19;101270.75;1087997;54;20041;-75
2022/12/18 04:44:14;;;;;;;66.85;39.28;;;;;;;-7.98;74.13;101267.28;1088078;47;20038;-76
2022/12/18 04:45:18;;;;;;;65.60;38.42;;;;;;;-7.96;74.32;101267.31;1087906;54;20015;-75
2022/12/18 04:46:20;;;;;;;67.30;38.13;;;;;;;-7.91;74.32;101265.56;1088485;46;20037;-75
2022/12/18 04:47:27;;;;;;;66.43;38.75;;;;;;;-7.99;74.61;101275.97;1088151;54;20034;-75
2022/12/18 04:48:28;;;;;;;69.88;39.28;;;;;;;-7.95;74.52;101262.09;1088131;46;20034;-76
2022/12/18 04:49:33;;;;;;;61.40;36.78;;;;;;;-7.81;74.34;101263.88;1087660;54;20025;-75
2022/12/18 04:50:34;;;;;;;66.93;37.83;;;;;;;-7.82;74.31;101262.97;1087499;54;20062;-75
2022/12/18 04:51:40;;;;;;;62.25;36.10;;;;;;;-7.74;74.00;101263.84;1088021;46;20037;-75
2022/12/18 04:54:57;;;;;;;52.08;31.67;;;;;;;-7.41;73.42;101254.34;1087719;54;20037;-77
2022/12/18 04:56:09;;;;;;;52.92;31.23;;;;;;;-7.32;73.25;101260.41;1087702;54;20031;-76
2022/12/18 04:57:13;;;;;;;50.47;29.55;;;;;;;-7.27;73.03;101256.09;1089157;39;20657;-78
2022/12/18 04:58:15;;;;;;;53.22;29.90;;;;;;;-7.20;72.79;101250.00;1087802;54;20038;-74
2022/12/18 04:59:19;;;;;;;47.47;28.20;;;;;;;-7.14;72.65;101257.78;1087814;54;20007;-74
2022/12/18 05:00:22;;;;;;;48.78;28.95;;;;;;;-7.11;72.65;101256.91;1087747;54;20083;-75
2022/12/18 05:01:26;;;;;;;54.78;31.35;;;;;;;-7.13;72.25;101254.31;1087652;54;20031;-74
2022/12/18 05:02:30;;;;;;;53.72;30.85;;;;;;;-7.16;72.04;101256.91;1087701;54;20039;-74
2022/12/18 05:03:34;;;;;;;51.22;31.65;;;;;;;-7.12;72.29;101253.44;1087697;54;20707;-74
2022/12/18 05:04:36;;;;;;;52.38;30.17;;;;;;;-7.12;72.09;101250.84;1087787;54;20034;-75
2022/12/18 05:05:40;;;;;;;52.15;29.88;;;;;;;-7.09;72.18;101256.06;1087714;54;20071;-75
2022/12/18 05:06:43;;;;;;;46.63;28.75;;;;;;;-7.07;71.83;101245.63;1087706;54;20018;-74
2022/12/18 05:07:47;;;;;;;50.78;30.15;;;;;;;-7.08;71.81;101247.34;1091160;31;20778;-74
2022/12/18 05:08:49;;;;;;;54.42;32.78;;;;;;;-7.12;71.77;101249.97;1087772;54;20034;-74
2022/12/18 05:09:53;;;;;;;52.28;30.77;;;;;;;-7.12;71.72;101250.84;1087715;54;20041;-74
2022/12/18 05:10:59;;;;;;;51.22;30.98;;;;;;;-7.12;71.88;101247.38;1087755;54;20030;-75
2022/12/18 05:12:03;;;;;;;51.33;30.33;;;;;;;-7.15;71.79;101250.84;1087706;54;20070;-74
2022/12/18 05:13:05;;;;;;;56.53;32.75;;;;;;;-7.20;71.39;101250.00;1087717;54;20992;-76
2022/12/18 05:14:09;;;;;;;49.25;30.60;;;;;;;-7.14;71.69;101254.31;1087692;54;20086;-74
2022/12/18 05:15:11;;;;;;;53.13;29.88;;;;;;;-7.14;71.55;101254.31;1088775;46;20046;-74
2022/12/18 05:16:17;;;;;;;45.45;27.52;;;;;;;-7.13;71.68;101262.09;1087795;54;20031;-74
2022/12/18 05:17:18;;;;;;;49.78;29.67;;;;;;;-7.18;71.59;101262.97;1089174;39;21007;-74
2022/12/18 05:18:27;;;;;;;59.38;30.95;;;;;;;-7.19;71.37;101256.03;1087811;46;20030;-74
2022/12/18 05:19:28;;;;;;;51.13;30.20;;;;;;;-7.17;71.45;101257.78;1087779;54;20038;-74
2022/12/18 05:20:33;;;;;;;46.72;27.67;;;;;;;-7.15;71.73;101263.84;1087615;54;20031;-74
2022/12/18 05:21:35;;;;;;;48.38;28.88;;;;;;;-7.16;71.63;101254.31;1087742;54;20042;-75
2022/12/18 05:22:41;;;;;;;54.28;32.65;;;;;;;-7.25;71.32;101259.53;1089153;46;20030;-74
2022/12/18 05:23:42;;;;;;;50.50;31.20;;;;;;;-7.23;71.42;101265.59;1090095;46;20034;-75
2022/12/18 05:24:47;;;;;;;53.58;31.17;;;;;;;-7.24;71.61;101258.66;1088364;46;20054;-74
2022/12/18 05:25:51;;;;;;;56.33;32.90;;;;;;;-7.35;71.59;101263.88;1088151;54;20042;-75
2022/12/18 05:26:56;;;;;;;54.00;30.73;;;;;;;-7.34;71.65;101262.13;1090215;46;20030;-75
2022/12/18 05:27:58;;;;;;;51.80;31.65;;;;;;;-7.41;71.64;101267.34;1088597;46;20030;-74
2022/12/18 05:29:02;;;;;;;55.63;32.17;;;;;;;-7.41;71.74;101266.47;1088951;46;20030;-74
2022/12/18 05:30:05;;;;;;;52.97;31.70;;;;;;;-7.40;71.75;101263.00;1088013;54;20034;-75
2022/12/18 05:31:19;;;;;;;48.50;29.02;;;;;;;-7.39;71.63;101269.94;1087870;54;20040;-74
2022/12/18 05:32:27;;;;;;;55.30;32.72;;;;;;;-7.48;71.71;101269.94;1090704;46;20035;-75
2022/12/18 05:33:46;;;;;;;50.25;31.40;;;;;;;-7.47;71.75;101277.75;1087788;54;20054;-74
2022/12/18 05:34:52;;;;;;;55.92;30.42;;;;;;;-7.43;71.98;101273.41;1087372;54;20037;-75
2022/12/18 05:36:10;;;;;;;50.05;28.95;;;;;;;-7.40;71.76;101282.06;1087487;54;20034;-74
2022/12/18 05:37:15;;;;;;;48.60;28.02;;;;;;;-7.37;71.84;101278.59;1087940;47;20110;-75
2022/12/18 05:38:29;;;;;;;46.92;27.55;;;;;;;-7.33;71.70;101285.53;1088707;46;20034;-74
2022/12/18 05:39:41;;;;;;;48.13;27.63;;;;;;;-7.36;71.43;101278.59;1087526;54;20051;-74